createdAt,value
2022-10-13T00:00:26.193Z,6.20
2022-10-13T00:00:56.816Z,6.60
2022-10-13T00:01:27.416Z,6.10
2022-10-13T00:01:57.956Z,6.30
2022-10-13T00:02:28.523Z,5.90
2022-10-13T00:02:59.103Z,6.70
2022-10-13T00:03:29.674Z,6.60
2022-10-13T00:04:00.268Z,6.10
2022-10-13T00:04:30.905Z,6.60
2022-10-13T00:05:01.459Z,5.70
2022-10-13T00:05:32.008Z,6.30
2022-10-13T00:06:02.589Z,6.60
2022-10-13T00:06:33.142Z,6.30
2022-10-13T00:07:03.714Z,6.00
2022-10-13T00:07:34.290Z,6.30
2022-10-13T00:08:04.841Z,6.00
2022-10-13T00:08:35.404Z,6.20
2022-10-13T00:09:05.982Z,6.50
2022-10-13T00:09:36.552Z,6.40
2022-10-13T00:10:07.110Z,6.00
2022-10-13T00:10:37.700Z,6.70
2022-10-13T00:11:08.252Z,6.30
2022-10-13T00:11:38.843Z,6.60
2022-10-13T00:12:09.407Z,6.40
2022-10-13T00:12:39.970Z,6.50
2022-10-13T00:13:10.918Z,6.00
2022-10-13T00:13:41.481Z,6.70
2022-10-13T00:14:12.074Z,5.70
2022-10-13T00:14:42.635Z,6.50
2022-10-13T00:15:13.194Z,6.60
2022-10-13T00:15:43.790Z,6.40
2022-10-13T00:16:14.345Z,6.40
2022-10-13T00:16:44.928Z,6.10
2022-10-13T00:17:15.481Z,6.20
2022-10-13T00:17:46.050Z,6.50
2022-10-13T00:18:16.644Z,6.30
2022-10-13T00:18:47.194Z,6.10
2022-10-13T00:19:17.758Z,6.30
2022-10-13T00:19:48.309Z,7.10
2022-10-13T00:20:18.862Z,7.30
2022-10-13T00:20:49.449Z,7.00
2022-10-13T00:21:20.027Z,6.80
2022-10-13T00:21:50.579Z,6.40
2022-10-13T00:22:21.476Z,6.70
2022-10-13T00:22:51.707Z,6.60
2022-10-13T00:23:22.228Z,6.20
2022-10-13T00:23:52.787Z,6.40
2022-10-13T00:24:23.361Z,6.30
2022-10-13T00:24:53.916Z,6.20
2022-10-13T00:25:24.491Z,6.40
2022-10-13T00:25:55.053Z,6.20
2022-10-13T00:26:25.656Z,6.10
2022-10-13T00:26:56.242Z,6.50
2022-10-13T00:27:26.785Z,6.50
2022-10-13T00:27:57.343Z,6.50
2022-10-13T00:28:27.940Z,5.90
2022-10-13T00:28:58.534Z,6.00
2022-10-13T00:29:29.111Z,6.20
2022-10-13T00:29:59.675Z,6.00
2022-10-13T00:30:30.219Z,6.60
2022-10-13T00:31:00.773Z,6.50
2022-10-13T00:31:31.345Z,5.80
2022-10-13T00:32:01.894Z,6.50
2022-10-13T00:32:32.480Z,5.60
2022-10-13T00:33:03.047Z,5.80
2022-10-13T00:33:33.593Z,5.70
2022-10-13T00:34:04.173Z,6.00
2022-10-13T00:34:34.745Z,6.00
2022-10-13T00:35:05.347Z,5.80
2022-10-13T00:35:35.892Z,6.00
2022-10-13T00:36:06.454Z,5.60
2022-10-13T00:36:37.004Z,5.60
2022-10-13T00:37:07.576Z,5.60
2022-10-13T00:37:38.163Z,6.00
2022-10-13T00:38:08.739Z,5.80
2022-10-13T00:38:39.308Z,5.20
2022-10-13T00:39:09.879Z,6.30
2022-10-13T00:39:40.405Z,5.90
2022-10-13T00:40:10.976Z,5.60
2022-10-13T00:40:41.536Z,5.80
2022-10-13T00:41:12.109Z,5.80
2022-10-13T00:41:42.680Z,6.10
2022-10-13T00:42:13.253Z,6.60
2022-10-13T00:42:43.808Z,6.10
2022-10-13T00:43:14.352Z,5.60
2022-10-13T00:43:44.921Z,6.20
2022-10-13T00:44:15.501Z,5.90
2022-10-13T00:44:46.070Z,5.40
2022-10-13T00:45:16.595Z,5.80
2022-10-13T00:45:47.134Z,5.80
2022-10-13T00:46:17.711Z,5.70
2022-10-13T00:46:48.282Z,5.60
2022-10-13T00:47:18.849Z,5.50
2022-10-13T00:47:49.401Z,5.70
2022-10-13T00:48:19.989Z,6.40
2022-10-13T00:48:50.572Z,6.60
2022-10-13T00:49:21.221Z,6.40
2022-10-13T00:49:51.744Z,5.90
2022-10-13T00:50:22.417Z,5.70
2022-10-13T00:50:52.948Z,6.10
2022-10-13T00:51:23.488Z,6.10
2022-10-13T00:51:54.068Z,5.90
2022-10-13T00:52:24.633Z,6.00
2022-10-13T00:52:55.183Z,5.70
2022-10-13T00:53:25.757Z,5.70
2022-10-13T00:53:56.315Z,6.20
2022-10-13T00:54:26.863Z,6.10
2022-10-13T00:54:57.434Z,5.20
2022-10-13T00:55:28.027Z,5.60
2022-10-13T00:55:58.602Z,5.90
2022-10-13T00:56:29.174Z,5.80
2022-10-13T00:56:59.730Z,5.60
2022-10-13T00:57:30.278Z,5.90
2022-10-13T00:58:04.956Z,5.80
2022-10-13T00:58:31.837Z,5.60
2022-10-13T00:59:02.414Z,5.50
2022-10-13T00:59:32.989Z,5.70
2022-10-13T01:00:03.516Z,5.50
2022-10-13T01:00:34.169Z,5.20
2022-10-13T01:01:04.775Z,5.70
2022-10-13T01:01:35.323Z,5.20
2022-10-13T01:02:05.863Z,5.40
2022-10-13T01:02:36.437Z,5.40
2022-10-13T01:03:06.988Z,5.60
2022-10-13T01:03:37.539Z,5.90
2022-10-13T01:04:08.124Z,5.50
2022-10-13T01:04:38.743Z,5.30
2022-10-13T01:05:09.318Z,5.40
2022-10-13T01:05:39.931Z,4.90
2022-10-13T01:06:10.459Z,5.30
2022-10-13T01:06:41.006Z,5.20
2022-10-13T01:07:11.584Z,5.40
2022-10-13T01:07:42.133Z,5.60
2022-10-13T01:08:12.673Z,5.20
2022-10-13T01:08:43.214Z,5.40
2022-10-13T01:09:13.823Z,5.00
2022-10-13T01:09:44.424Z,5.30
2022-10-13T01:10:14.982Z,5.10
2022-10-13T01:10:45.527Z,5.40
2022-10-13T01:11:16.118Z,4.70
2022-10-13T01:11:46.672Z,5.00
2022-10-13T01:12:17.635Z,5.00
2022-10-13T01:12:47.885Z,5.40
2022-10-13T01:13:18.449Z,5.00
2022-10-13T01:13:48.978Z,5.40
2022-10-13T01:14:19.520Z,5.40
2022-10-13T01:14:50.058Z,5.10
2022-10-13T01:15:20.618Z,5.00
2022-10-13T01:15:51.149Z,4.80
2022-10-13T01:16:21.752Z,5.30
2022-10-13T01:16:52.293Z,5.00
2022-10-13T01:17:22.831Z,4.80
2022-10-13T01:17:53.401Z,5.10
2022-10-13T01:18:23.983Z,4.80
2022-10-13T01:18:54.549Z,5.30
2022-10-13T01:19:25.124Z,4.90
2022-10-13T01:19:55.689Z,5.00
2022-10-13T01:20:26.258Z,4.90
2022-10-13T01:20:56.809Z,4.90
2022-10-13T01:21:27.362Z,4.50
2022-10-13T01:21:57.939Z,4.80
2022-10-13T01:22:28.510Z,5.00
2022-10-13T01:22:59.091Z,5.00
2022-10-13T01:23:29.671Z,4.90
2022-10-13T01:24:00.235Z,4.90
2022-10-13T01:24:30.790Z,5.20
2022-10-13T01:25:01.342Z,5.00
2022-10-13T01:25:31.893Z,4.60
2022-10-13T01:26:02.425Z,5.00
2022-10-13T01:26:32.995Z,5.10
2022-10-13T01:27:03.535Z,4.80
2022-10-13T01:27:34.117Z,5.20
2022-10-13T01:28:04.693Z,5.20
2022-10-13T01:28:35.303Z,5.90
2022-10-13T01:29:05.868Z,5.10
2022-10-13T01:29:36.420Z,5.40
2022-10-13T01:30:07.003Z,5.40
2022-10-13T01:30:37.533Z,5.30
2022-10-13T01:31:08.085Z,5.40
2022-10-13T01:31:38.635Z,5.00
2022-10-13T01:32:09.191Z,5.20
2022-10-13T01:32:39.782Z,5.40
2022-10-13T01:33:10.363Z,5.40
2022-10-13T01:33:40.942Z,5.00
2022-10-13T01:34:11.482Z,5.00
2022-10-13T01:34:42.045Z,5.00
2022-10-13T01:35:12.594Z,5.20
2022-10-13T01:35:43.166Z,5.20
2022-10-13T01:36:13.780Z,4.90
2022-10-13T01:36:44.306Z,5.10
2022-10-13T01:37:14.857Z,5.00
2022-10-13T01:37:45.423Z,4.80
2022-10-13T01:38:15.994Z,5.10
2022-10-13T01:38:46.586Z,4.90
2022-10-13T01:39:17.151Z,5.10
2022-10-13T01:39:47.728Z,5.10
2022-10-13T01:40:18.278Z,4.90
2022-10-13T01:40:48.853Z,5.10
2022-10-13T01:41:19.394Z,5.10
2022-10-13T01:41:49.968Z,4.90
2022-10-13T01:42:20.908Z,5.50
2022-10-13T01:42:51.178Z,4.90
2022-10-13T01:43:21.759Z,5.30
2022-10-13T01:43:52.349Z,5.10
2022-10-13T01:44:22.903Z,5.40
2022-10-13T01:44:53.470Z,5.00
2022-10-13T01:45:24.030Z,4.90
2022-10-13T01:45:54.577Z,5.70
2022-10-13T01:46:25.141Z,4.90
2022-10-13T01:46:55.726Z,5.00
2022-10-13T01:47:26.298Z,5.00
2022-10-13T01:47:56.846Z,5.20
2022-10-13T01:48:27.425Z,5.20
2022-10-13T01:48:57.993Z,5.30
2022-10-13T01:49:28.555Z,4.80
2022-10-13T01:49:59.124Z,5.40
2022-10-13T01:50:29.687Z,5.10
2022-10-13T01:51:00.231Z,5.00
2022-10-13T01:51:30.807Z,5.10
2022-10-13T01:52:01.356Z,5.30
2022-10-13T01:52:31.943Z,5.20
2022-10-13T01:53:02.486Z,5.30
2022-10-13T01:53:33.033Z,5.00
2022-10-13T01:54:03.649Z,5.70
2022-10-13T01:54:34.207Z,5.30
2022-10-13T01:55:04.788Z,5.10
2022-10-13T01:55:35.369Z,5.10
2022-10-13T01:56:05.928Z,5.80
2022-10-13T01:56:36.464Z,5.40
2022-10-13T01:57:07.018Z,5.00
2022-10-13T01:57:37.576Z,5.60
2022-10-13T01:58:08.139Z,4.90
2022-10-13T01:58:38.685Z,5.10
2022-10-13T01:59:09.285Z,5.10
2022-10-13T01:59:39.830Z,5.10
2022-10-13T02:00:10.427Z,5.50
2022-10-13T02:00:41.054Z,5.20
2022-10-13T02:01:11.634Z,5.00
2022-10-13T02:01:42.179Z,5.00
2022-10-13T02:02:12.747Z,5.10
2022-10-13T02:02:43.308Z,4.80
2022-10-13T02:03:13.885Z,4.60
2022-10-13T02:03:44.478Z,5.00
2022-10-13T02:04:15.042Z,5.10
2022-10-13T02:04:45.624Z,5.00
2022-10-13T02:05:16.188Z,5.30
2022-10-13T02:05:46.768Z,5.40
2022-10-13T02:06:17.359Z,5.00
2022-10-13T02:06:47.945Z,4.90
2022-10-13T02:07:18.478Z,5.20
2022-10-13T02:07:49.064Z,4.90
2022-10-13T02:08:19.634Z,5.00
2022-10-13T02:08:50.181Z,4.60
2022-10-13T02:09:20.753Z,4.70
2022-10-13T02:09:51.354Z,5.20
2022-10-13T02:10:21.933Z,5.00
2022-10-13T02:10:52.472Z,5.40
2022-10-13T02:11:23.033Z,5.50
2022-10-13T02:11:53.573Z,5.40
2022-10-13T02:12:24.130Z,5.20
2022-10-13T02:12:54.676Z,5.10
2022-10-13T02:13:25.258Z,5.20
2022-10-13T02:13:55.781Z,5.20
2022-10-13T02:14:26.325Z,5.40
2022-10-13T02:14:56.911Z,5.10
2022-10-13T02:15:27.486Z,5.30
2022-10-13T02:15:58.080Z,5.30
2022-10-13T02:16:28.610Z,5.10
2022-10-13T02:16:59.202Z,5.00
2022-10-13T02:17:29.787Z,5.00
2022-10-13T02:18:00.363Z,5.10
2022-10-13T02:18:30.894Z,5.10
2022-10-13T02:19:01.474Z,5.20
2022-10-13T02:19:32.013Z,5.60
2022-10-13T02:20:02.601Z,5.30
2022-10-13T02:20:33.197Z,4.80
2022-10-13T02:21:03.739Z,5.10
2022-10-13T02:21:34.322Z,5.20
2022-10-13T02:22:04.952Z,5.20
2022-10-13T02:22:35.482Z,5.10
2022-10-13T02:23:06.081Z,4.90
2022-10-13T02:23:36.633Z,5.40
2022-10-13T02:24:07.197Z,5.80
2022-10-13T02:24:37.769Z,5.70
2022-10-13T02:25:08.335Z,5.20
2022-10-13T02:25:38.865Z,5.10
2022-10-13T02:26:09.414Z,5.90
2022-10-13T02:26:39.993Z,5.30
2022-10-13T02:27:10.568Z,5.50
2022-10-13T02:27:41.120Z,5.40
2022-10-13T02:28:11.736Z,5.20
2022-10-13T02:28:42.371Z,5.80
2022-10-13T02:29:12.902Z,5.50
2022-10-13T02:29:43.459Z,5.30
2022-10-13T02:30:14.042Z,5.50
2022-10-13T02:30:44.615Z,5.30
2022-10-13T02:31:15.200Z,5.40
2022-10-13T02:31:45.762Z,5.10
2022-10-13T02:32:16.765Z,5.40
2022-10-13T02:32:47.052Z,5.60
2022-10-13T02:33:17.615Z,5.20
2022-10-13T02:33:48.171Z,5.50
2022-10-13T02:34:18.751Z,5.80
2022-10-13T02:34:49.299Z,5.10
2022-10-13T02:35:19.854Z,5.90
2022-10-13T02:35:50.413Z,5.50
2022-10-13T02:36:20.992Z,5.00
2022-10-13T02:36:51.547Z,5.30
2022-10-13T02:37:22.146Z,5.30
2022-10-13T02:37:52.695Z,5.40
2022-10-13T02:38:23.239Z,5.30
2022-10-13T02:38:53.777Z,5.70
2022-10-13T02:39:24.351Z,5.80
2022-10-13T02:39:54.935Z,5.70
2022-10-13T02:40:25.491Z,5.40
2022-10-13T02:40:56.037Z,5.90
2022-10-13T02:41:26.626Z,5.50
2022-10-13T02:41:57.224Z,5.20
2022-10-13T02:42:27.793Z,5.50
2022-10-13T02:42:58.667Z,5.50
2022-10-13T02:43:29.274Z,5.50
2022-10-13T02:43:59.852Z,6.00
2022-10-13T02:44:30.402Z,5.20
2022-10-13T02:45:00.958Z,5.50
2022-10-13T02:45:31.528Z,5.80
2022-10-13T02:46:02.053Z,5.00
2022-10-13T02:46:32.655Z,5.10
2022-10-13T02:47:03.210Z,4.80
2022-10-13T02:47:33.752Z,5.80
2022-10-13T02:48:04.289Z,5.10
2022-10-13T02:48:34.819Z,5.60
2022-10-13T02:49:05.381Z,5.80
2022-10-13T02:49:35.953Z,5.00
2022-10-13T02:50:06.503Z,5.00
2022-10-13T02:50:37.076Z,5.20
2022-10-13T02:51:07.639Z,5.10
2022-10-13T02:51:40.452Z,5.00
2022-10-13T02:52:09.111Z,4.80
2022-10-13T02:52:39.788Z,4.90
2022-10-13T02:53:10.317Z,4.60
2022-10-13T02:53:40.876Z,4.80
2022-10-13T02:54:11.408Z,5.10
2022-10-13T02:54:41.961Z,5.00
2022-10-13T02:55:12.550Z,5.50
2022-10-13T02:55:43.127Z,5.00
2022-10-13T02:56:13.662Z,4.90
2022-10-13T02:56:44.207Z,4.50
2022-10-13T02:57:14.786Z,4.70
2022-10-13T02:57:45.361Z,4.60
2022-10-13T02:58:15.910Z,5.10
2022-10-13T02:58:46.478Z,4.30
2022-10-13T02:59:17.035Z,4.80
2022-10-13T02:59:47.634Z,4.70
2022-10-13T03:00:18.198Z,5.20
2022-10-13T03:00:48.823Z,4.80
2022-10-13T03:01:19.424Z,5.00
2022-10-13T03:01:50.028Z,4.80
2022-10-13T03:02:21.048Z,5.20
2022-10-13T03:02:51.335Z,5.00
2022-10-13T03:03:21.907Z,4.70
2022-10-13T03:03:52.489Z,4.90
2022-10-13T03:04:23.048Z,4.50
2022-10-13T03:04:53.614Z,4.40
2022-10-13T03:05:24.192Z,4.30
2022-10-13T03:05:54.759Z,4.70
2022-10-13T03:06:25.310Z,4.70
2022-10-13T03:06:55.883Z,4.50
2022-10-13T03:07:26.462Z,4.10
2022-10-13T03:07:57.026Z,4.80
2022-10-13T03:08:27.581Z,4.90
2022-10-13T03:08:58.117Z,4.40
2022-10-13T03:09:28.674Z,4.90
2022-10-13T03:09:59.265Z,4.30
2022-10-13T03:10:29.858Z,4.70
2022-10-13T03:11:00.423Z,4.70
2022-10-13T03:11:31.006Z,4.30
2022-10-13T03:12:01.592Z,4.30
2022-10-13T03:12:32.135Z,4.90
2022-10-13T03:13:02.717Z,4.80
2022-10-13T03:13:33.285Z,4.70
2022-10-13T03:14:03.812Z,4.60
2022-10-13T03:14:34.342Z,5.20
2022-10-13T03:15:04.913Z,5.10
2022-10-13T03:15:35.496Z,4.60
2022-10-13T03:16:06.040Z,4.20
2022-10-13T03:16:36.618Z,4.70
2022-10-13T03:17:11.124Z,5.40
2022-10-13T03:17:37.971Z,4.60
2022-10-13T03:18:08.528Z,4.70
2022-10-13T03:18:39.093Z,5.00
2022-10-13T03:19:09.618Z,4.80
2022-10-13T03:19:40.188Z,4.80
2022-10-13T03:20:10.726Z,4.90
2022-10-13T03:20:41.262Z,4.50
2022-10-13T03:21:11.813Z,4.90
2022-10-13T03:21:42.385Z,5.00
2022-10-13T03:22:12.921Z,4.70
2022-10-13T03:22:47.361Z,4.40
2022-10-13T03:23:14.416Z,4.70
2022-10-13T03:23:44.962Z,4.80
2022-10-13T03:24:15.500Z,4.70
2022-10-13T03:24:46.085Z,4.30
2022-10-13T03:25:16.655Z,4.50
2022-10-13T03:25:47.230Z,4.70
2022-10-13T03:26:17.789Z,4.00
2022-10-13T03:26:48.321Z,4.40
2022-10-13T03:27:18.897Z,4.60
2022-10-13T03:27:49.458Z,4.50
2022-10-13T03:28:20.084Z,4.30
2022-10-13T03:28:50.731Z,4.60
2022-10-13T03:29:21.291Z,4.80
2022-10-13T03:29:51.847Z,4.70
2022-10-13T03:30:22.395Z,4.80
2022-10-13T03:30:52.967Z,4.10
2022-10-13T03:31:23.492Z,4.60
2022-10-13T03:31:54.068Z,5.00
2022-10-13T03:32:24.639Z,4.10
2022-10-13T03:32:55.176Z,5.10
2022-10-13T03:33:25.737Z,4.40
2022-10-13T03:33:56.331Z,4.50
2022-10-13T03:34:26.908Z,4.60
2022-10-13T03:34:57.442Z,4.50
2022-10-13T03:35:28.021Z,4.30
2022-10-13T03:35:58.594Z,4.60
2022-10-13T03:36:29.170Z,4.40
2022-10-13T03:36:59.701Z,4.40
2022-10-13T03:37:30.261Z,4.30
2022-10-13T03:38:00.797Z,5.00
2022-10-13T03:38:31.548Z,4.70
2022-10-13T03:39:02.080Z,4.60
2022-10-13T03:39:32.638Z,4.40
2022-10-13T03:40:03.201Z,4.70
2022-10-13T03:40:33.811Z,4.80
2022-10-13T03:41:04.344Z,5.00
2022-10-13T03:41:34.910Z,4.70
2022-10-13T03:42:05.476Z,4.80
2022-10-13T03:42:36.022Z,5.00
2022-10-13T03:43:06.570Z,4.30
2022-10-13T03:43:37.164Z,4.50
2022-10-13T03:44:07.688Z,4.80
2022-10-13T03:44:38.245Z,4.60
2022-10-13T03:45:08.772Z,4.50
2022-10-13T03:45:39.321Z,4.40
2022-10-13T03:46:09.908Z,4.90
2022-10-13T03:46:40.460Z,4.60
2022-10-13T03:47:11.029Z,4.40
2022-10-13T03:47:41.805Z,4.80
2022-10-13T03:48:12.368Z,4.90
2022-10-13T03:48:42.910Z,4.40
2022-10-13T03:49:13.473Z,4.60
2022-10-13T03:49:44.513Z,4.90
2022-10-13T03:50:15.069Z,4.90
2022-10-13T03:50:45.616Z,4.60
2022-10-13T03:51:16.177Z,4.60
2022-10-13T03:51:46.732Z,4.80
2022-10-13T03:52:17.731Z,4.70
2022-10-13T03:52:47.990Z,4.70
2022-10-13T03:53:18.658Z,4.90
2022-10-13T03:53:49.268Z,4.60
2022-10-13T03:54:19.793Z,4.60
2022-10-13T03:54:50.377Z,4.80
2022-10-13T03:55:20.934Z,4.40
2022-10-13T03:55:51.479Z,4.80
2022-10-13T03:56:22.069Z,4.40
2022-10-13T03:56:52.638Z,4.70
2022-10-13T03:57:23.207Z,4.90
2022-10-13T03:57:53.777Z,4.40
2022-10-13T03:58:24.328Z,4.90
2022-10-13T03:58:54.883Z,4.70
2022-10-13T03:59:25.410Z,4.20
2022-10-13T03:59:55.959Z,4.60
2022-10-13T04:00:26.490Z,4.90
2022-10-13T04:00:57.025Z,4.60
2022-10-13T04:01:27.669Z,4.30
2022-10-13T04:01:58.245Z,4.20
2022-10-13T04:02:28.790Z,5.00
2022-10-13T04:02:59.335Z,4.50
2022-10-13T04:03:29.892Z,4.80
2022-10-13T04:04:00.438Z,4.90
2022-10-13T04:04:31.006Z,4.30
2022-10-13T04:05:01.588Z,4.60
2022-10-13T04:05:32.155Z,4.90
2022-10-13T04:06:02.710Z,4.20
2022-10-13T04:06:33.289Z,4.30
2022-10-13T04:07:03.810Z,5.00
2022-10-13T04:07:34.369Z,4.80
2022-10-13T04:08:04.949Z,4.70
2022-10-13T04:08:35.512Z,4.60
2022-10-13T04:09:06.110Z,4.60
2022-10-13T04:09:36.636Z,5.00
2022-10-13T04:10:11.270Z,4.50
2022-10-13T04:10:37.911Z,4.70
2022-10-13T04:11:08.474Z,4.50
2022-10-13T04:11:39.040Z,5.00
2022-10-13T04:12:09.634Z,4.60
2022-10-13T04:12:40.212Z,4.40
2022-10-13T04:13:10.765Z,4.30
2022-10-13T04:13:41.339Z,4.10
2022-10-13T04:14:11.916Z,4.20
2022-10-13T04:14:42.437Z,4.50
2022-10-13T04:15:13.021Z,4.50
2022-10-13T04:15:43.585Z,4.80
2022-10-13T04:16:14.154Z,5.00
2022-10-13T04:16:44.707Z,4.70
2022-10-13T04:17:15.245Z,4.60
2022-10-13T04:17:45.786Z,4.80
2022-10-13T04:18:16.359Z,5.00
2022-10-13T04:18:46.896Z,4.40
2022-10-13T04:19:17.421Z,4.70
2022-10-13T04:19:47.993Z,4.50
2022-10-13T04:20:18.553Z,5.00
2022-10-13T04:20:49.122Z,4.70
2022-10-13T04:21:19.687Z,4.40
2022-10-13T04:21:50.221Z,4.70
2022-10-13T04:22:21.085Z,4.40
2022-10-13T04:22:51.369Z,4.90
2022-10-13T04:23:21.958Z,4.60
2022-10-13T04:23:52.563Z,4.80
2022-10-13T04:24:23.150Z,4.70
2022-10-13T04:24:53.715Z,4.60
2022-10-13T04:25:24.254Z,4.30
2022-10-13T04:25:54.833Z,4.70
2022-10-13T04:26:25.425Z,4.60
2022-10-13T04:26:56.019Z,4.90
2022-10-13T04:27:26.586Z,4.70
2022-10-13T04:27:57.162Z,4.50
2022-10-13T04:28:27.729Z,4.50
2022-10-13T04:28:58.300Z,4.50
2022-10-13T04:29:28.886Z,4.90
2022-10-13T04:29:59.429Z,4.80
2022-10-13T04:30:29.995Z,4.60
2022-10-13T04:31:00.544Z,4.70
2022-10-13T04:31:31.117Z,4.50
2022-10-13T04:32:01.648Z,4.90
2022-10-13T04:32:32.240Z,4.80
2022-10-13T04:33:02.820Z,5.20
2022-10-13T04:33:33.373Z,5.20
2022-10-13T04:34:03.935Z,5.20
2022-10-13T04:34:34.495Z,5.20
2022-10-13T04:35:05.042Z,5.10
2022-10-13T04:35:35.611Z,5.20
2022-10-13T04:36:06.167Z,5.00
2022-10-13T04:36:36.720Z,5.30
2022-10-13T04:37:07.286Z,5.50
2022-10-13T04:37:40.546Z,5.30
2022-10-13T04:38:08.600Z,4.70
2022-10-13T04:38:39.161Z,4.90
2022-10-13T04:39:09.720Z,5.10
2022-10-13T04:39:40.319Z,5.30
2022-10-13T04:40:10.847Z,4.80
2022-10-13T04:40:41.429Z,4.70
2022-10-13T04:41:11.980Z,5.10
2022-10-13T04:41:42.537Z,5.10
2022-10-13T04:42:13.074Z,5.40
2022-10-13T04:42:43.638Z,4.90
2022-10-13T04:43:14.237Z,5.30
2022-10-13T04:43:44.806Z,4.90
2022-10-13T04:44:15.355Z,5.10
2022-10-13T04:44:45.912Z,5.40
2022-10-13T04:45:16.496Z,5.00
2022-10-13T04:45:47.089Z,5.30
2022-10-13T04:46:17.630Z,5.10
2022-10-13T04:46:48.193Z,5.10
2022-10-13T04:47:18.764Z,4.70
2022-10-13T04:47:49.308Z,5.40
2022-10-13T04:48:19.901Z,4.90
2022-10-13T04:48:50.465Z,5.00
2022-10-13T04:49:21.006Z,5.10
2022-10-13T04:49:51.579Z,4.90
2022-10-13T04:50:22.155Z,4.80
2022-10-13T04:50:52.682Z,4.90
2022-10-13T04:51:23.242Z,5.10
2022-10-13T04:51:53.785Z,4.90
2022-10-13T04:52:24.341Z,4.90
2022-10-13T04:52:54.878Z,5.30
2022-10-13T04:53:25.465Z,5.00
2022-10-13T04:53:56.032Z,4.80
2022-10-13T04:54:26.607Z,5.60
2022-10-13T04:54:57.191Z,4.80
2022-10-13T04:55:27.745Z,4.80
2022-10-13T04:55:58.282Z,4.60
2022-10-13T04:56:28.860Z,5.00
2022-10-13T04:56:59.415Z,4.80
2022-10-13T04:57:29.978Z,4.80
2022-10-13T04:58:00.522Z,4.70
2022-10-13T04:58:31.093Z,4.70
2022-10-13T04:59:01.698Z,4.90
2022-10-13T04:59:32.265Z,5.20
2022-10-13T05:00:02.845Z,4.60
2022-10-13T05:00:33.482Z,4.90
2022-10-13T05:01:04.079Z,5.10
2022-10-13T05:01:34.640Z,5.10
2022-10-13T05:02:05.192Z,5.30
2022-10-13T05:02:35.723Z,5.00
2022-10-13T05:03:06.351Z,4.80
2022-10-13T05:03:36.959Z,4.80
2022-10-13T05:04:07.549Z,5.40
2022-10-13T05:04:38.110Z,4.80
2022-10-13T05:05:08.663Z,5.30
2022-10-13T05:05:39.243Z,5.10
2022-10-13T05:06:09.791Z,5.10
2022-10-13T05:06:58.914Z,4.70
2022-10-13T05:07:17.948Z,4.60
2022-10-13T05:07:41.943Z,5.10
2022-10-13T05:08:12.532Z,5.20
2022-10-13T05:08:43.116Z,5.30
2022-10-13T05:09:13.650Z,4.90
2022-10-13T05:09:44.246Z,4.90
2022-10-13T05:10:14.896Z,4.50
2022-10-13T05:10:45.444Z,5.10
2022-10-13T05:11:16.121Z,5.00
2022-10-13T05:11:46.692Z,4.50
2022-10-13T05:12:17.543Z,4.80
2022-10-13T05:12:48.254Z,4.70
2022-10-13T05:13:18.792Z,5.20
2022-10-13T05:13:50.526Z,5.50
2022-10-13T05:14:20.518Z,4.80
2022-10-13T05:14:51.586Z,4.80
2022-10-13T05:15:22.155Z,5.10
2022-10-13T05:15:52.695Z,4.90
2022-10-13T05:16:23.718Z,5.20
2022-10-13T05:16:54.773Z,4.40
2022-10-13T05:17:25.317Z,4.80
2022-10-13T05:17:55.833Z,4.90
2022-10-13T05:18:26.390Z,5.20
2022-10-13T05:18:56.892Z,5.40
2022-10-13T05:19:27.444Z,5.30
2022-10-13T05:19:57.944Z,5.00
2022-10-13T05:20:28.467Z,5.00
2022-10-13T05:20:59.504Z,4.80
2022-10-13T05:21:30.530Z,5.20
2022-10-13T05:22:01.058Z,4.80
2022-10-13T05:22:32.059Z,5.10
2022-10-13T05:23:03.058Z,4.90
2022-10-13T05:23:34.113Z,5.40
2022-10-13T05:24:05.136Z,4.60
2022-10-13T05:24:36.192Z,4.70
2022-10-13T05:25:06.700Z,4.90
2022-10-13T05:25:37.713Z,5.40
2022-10-13T05:26:08.724Z,4.90
2022-10-13T05:26:39.247Z,5.20
2022-10-13T05:27:10.254Z,5.10
2022-10-13T05:27:41.291Z,5.40
2022-10-13T05:28:12.462Z,4.90
2022-10-13T05:28:43.026Z,4.90
2022-10-13T05:29:13.544Z,5.40
2022-10-13T05:29:44.561Z,5.10
2022-10-13T05:30:15.080Z,5.00
2022-10-13T05:30:46.099Z,5.00
2022-10-13T05:31:16.621Z,4.60
2022-10-13T05:31:47.649Z,4.80
2022-10-13T05:32:19.061Z,5.40
2022-10-13T05:32:53.687Z,5.70
2022-10-13T05:33:20.359Z,4.80
2022-10-13T05:33:50.873Z,4.90
2022-10-13T05:34:21.402Z,4.80
2022-10-13T05:34:52.430Z,5.20
2022-10-13T05:35:23.443Z,4.90
2022-10-13T05:35:54.446Z,5.10
2022-10-13T05:36:24.982Z,5.40
2022-10-13T05:36:55.507Z,5.00
2022-10-13T05:37:26.556Z,4.80
2022-10-13T05:37:57.058Z,5.10
2022-10-13T05:38:28.059Z,5.00
2022-10-13T05:38:58.580Z,4.90
2022-10-13T05:39:29.615Z,5.40
2022-10-13T05:40:00.136Z,5.10
2022-10-13T05:40:31.177Z,5.00
2022-10-13T05:41:01.716Z,5.20
2022-10-13T05:41:32.718Z,5.40
2022-10-13T05:42:03.746Z,5.00
2022-10-13T05:42:34.269Z,5.30
2022-10-13T05:43:04.800Z,5.70
2022-10-13T05:43:35.324Z,5.20
2022-10-13T05:44:05.845Z,4.90
2022-10-13T05:44:36.915Z,4.80
2022-10-13T05:45:07.440Z,5.40
2022-10-13T05:45:38.437Z,4.60
2022-10-13T05:46:08.968Z,5.40
2022-10-13T05:46:39.492Z,5.50
2022-10-13T05:47:10.017Z,5.30
2022-10-13T05:47:41.027Z,5.10
2022-10-13T05:48:11.564Z,5.10
2022-10-13T05:48:42.067Z,5.80
2022-10-13T05:49:13.093Z,5.20
2022-10-13T05:49:43.628Z,5.00
2022-10-13T05:50:14.625Z,5.20
2022-10-13T05:50:45.178Z,5.10
2022-10-13T05:51:15.709Z,4.90
2022-10-13T05:51:46.747Z,4.70
2022-10-13T05:52:17.668Z,4.70
2022-10-13T05:52:47.831Z,5.10
2022-10-13T05:53:18.846Z,5.20
2022-10-13T05:53:52.946Z,4.80
2022-10-13T05:54:20.093Z,5.10
2022-10-13T05:54:51.143Z,5.30
2022-10-13T05:55:21.679Z,5.50
2022-10-13T05:55:52.687Z,5.40
2022-10-13T05:56:23.731Z,5.50
2022-10-13T05:56:54.733Z,5.50
2022-10-13T05:57:25.759Z,5.60
2022-10-13T05:57:56.789Z,5.50
2022-10-13T05:58:27.823Z,5.60
2022-10-13T05:58:58.846Z,5.50
2022-10-13T05:59:29.360Z,5.30
2022-10-13T06:00:00.412Z,5.20
2022-10-13T06:00:30.931Z,5.40
2022-10-13T06:01:01.957Z,5.50
2022-10-13T06:01:33.071Z,5.60
2022-10-13T06:02:03.596Z,5.70
2022-10-13T06:02:34.099Z,5.70
2022-10-13T06:03:04.621Z,5.50
2022-10-13T06:03:35.630Z,5.40
2022-10-13T06:04:06.658Z,5.50
2022-10-13T06:04:37.677Z,4.80
2022-10-13T06:05:08.695Z,5.20
2022-10-13T06:05:39.688Z,5.70
2022-10-13T06:06:10.729Z,5.40
2022-10-13T06:06:41.271Z,4.80
2022-10-13T06:07:12.296Z,5.90
2022-10-13T06:07:43.299Z,5.00
2022-10-13T06:08:14.341Z,5.20
2022-10-13T06:08:45.402Z,5.30
2022-10-13T06:09:15.920Z,4.60
2022-10-13T06:09:46.975Z,4.90
2022-10-13T06:10:17.475Z,4.80
2022-10-13T06:10:48.505Z,5.00
2022-10-13T06:11:19.038Z,5.10
2022-10-13T06:11:50.106Z,4.90
2022-10-13T06:12:21.430Z,5.10
2022-10-13T06:12:52.124Z,4.80
2022-10-13T06:13:23.146Z,5.00
2022-10-13T06:13:53.664Z,4.80
2022-10-13T06:14:24.709Z,4.50
2022-10-13T06:14:55.223Z,5.00
2022-10-13T06:15:28.105Z,5.30
2022-10-13T06:15:56.350Z,5.10
2022-10-13T06:16:27.337Z,5.40
2022-10-13T06:16:58.374Z,5.20
2022-10-13T06:17:28.898Z,5.40
2022-10-13T06:17:59.899Z,5.00
2022-10-13T06:18:30.920Z,5.10
2022-10-13T06:19:01.964Z,5.00
2022-10-13T06:19:32.507Z,4.70
2022-10-13T06:20:03.045Z,5.10
2022-10-13T06:20:33.563Z,5.20
2022-10-13T06:21:04.592Z,4.90
2022-10-13T06:21:35.590Z,5.00
2022-10-13T06:22:06.581Z,4.90
2022-10-13T06:22:37.103Z,5.30
2022-10-13T06:23:08.115Z,5.40
2022-10-13T06:23:39.158Z,5.50
2022-10-13T06:24:09.681Z,5.60
2022-10-13T06:24:40.718Z,5.00
2022-10-13T06:25:11.745Z,5.50
2022-10-13T06:25:42.777Z,5.40
2022-10-13T06:26:13.298Z,5.50
2022-10-13T06:26:44.321Z,5.30
2022-10-13T06:27:15.392Z,5.10
2022-10-13T06:27:45.865Z,5.30
2022-10-13T06:28:16.915Z,5.50
2022-10-13T06:28:50.157Z,5.50
2022-10-13T06:29:18.086Z,5.30
2022-10-13T06:29:49.088Z,5.60
2022-10-13T06:30:20.112Z,5.30
2022-10-13T06:30:51.149Z,5.40
2022-10-13T06:31:22.515Z,5.70
2022-10-13T06:31:52.507Z,5.40
2022-10-13T06:32:23.753Z,5.80
2022-10-13T06:32:54.241Z,5.20
2022-10-13T06:33:24.763Z,4.60
2022-10-13T06:33:55.787Z,5.70
2022-10-13T06:34:26.799Z,5.50
2022-10-13T06:34:57.338Z,5.30
2022-10-13T06:35:27.858Z,5.40
2022-10-13T06:35:58.880Z,5.00
2022-10-13T06:36:29.878Z,5.70
2022-10-13T06:37:00.419Z,5.90
2022-10-13T06:37:30.945Z,5.50
2022-10-13T06:38:01.937Z,6.10
2022-10-13T06:38:32.952Z,5.30
2022-10-13T06:39:03.966Z,6.10
2022-10-13T06:39:35.006Z,5.60
2022-10-13T06:40:06.030Z,5.90
2022-10-13T06:40:37.035Z,6.20
2022-10-13T06:41:08.072Z,5.20
2022-10-13T06:41:39.096Z,5.60
2022-10-13T06:42:10.138Z,5.10
2022-10-13T06:42:41.172Z,6.30
2022-10-13T06:43:12.167Z,5.30
2022-10-13T06:43:43.195Z,5.70
2022-10-13T06:44:14.209Z,6.10
2022-10-13T06:44:44.733Z,5.90
2022-10-13T06:45:15.755Z,5.40
2022-10-13T06:45:46.764Z,5.80
2022-10-13T06:46:17.290Z,5.60
2022-10-13T06:46:47.818Z,5.80
2022-10-13T06:47:18.346Z,5.70
2022-10-13T06:47:49.351Z,5.00